Aérodrome :
LOGIN :

S'inscrire | Disclaimer

   EN    FR    IT 

 










Légende :    VFR   VFR Marginal   IFR   IFR Intensif   IFR Très Intensif
Visi : 
Plafond : 
>= 8 km
>= 3000ft
5 à 8 km
1000 à 3000 ft
1500m à 5 km
500 à 1000 ft
800 à 1500m
200 à 500 ft
< 800m
< 200 ft
Symboles :   Orages  Brouillard  Fortes neiges  Fortes précipitations  Vent > 20 kt
SIGMETs :   Divers  Orages  Givrage  Turbulence  Onde Orograph.  Cendres Volcan.







- Altitude de l'aérodrome : 1090 ft
- Code IATA : CFE
- Voir les cartes d'approche


LFLC - Clermont-Ferrand Auvergne

DERNIER METAR :
  • 211930Z AUTO 01012KT 330V040 9999 SCT037 BKN043 OVC054 22/16 Q1021 TEMPO 02015G25KT

METARs EXPIRÉS :
  • 211900Z AUTO 01011KT 9999 SCT042 BKN058 BKN068 23/16 Q1020 TEMPO 02015G25KT
  • 211830Z AUTO 36011KT 330V030 9999 FEW054 BKN064 BKN074 24/16 Q1019 TEMPO 02015G25KT
  • 211800Z AUTO 36012KT 330V030 9999 FEW054 25/16 Q1019 TEMPO 02015G25KT
  • 211730Z AUTO 02010KT 350V050 9999 FEW058 27/16 Q1019 TEMPO FEW050TCU
  • 211700Z AUTO 03010KT 360V070 9999 FEW064 27/16 Q1018 TEMPO FEW050TCU

TAF AMD TAF LFLC
Valide du 21 à 17h jusqu'au 22 à 15h UTC


211724Z 2117/2215 36010KT CAVOK
PROB30
TEMPO 2118/2121 02015G25KT
PROB40
TEMPO 2211/2215 02015G25KT
ATIS : +33 4 73 62 74 38
Pas de NOTAMs connus pour ce terrain.



MET'MAP, la Météo Aéronautique d'un coup d'oeil ! - Copyright ORBIFLY Décembre 2007 - Disclaimer

ORBIFLY MET'MAP TEAM :

Programmation & Développement : Alexandra Zaïnal
Conception & Développement : Baudouin d'Aumeries
Co-Programmation & Développement : Marc-Olivier Méhu
Soutien technique & logistique : Manuel Goepfert

Contact : metmap@orbifly.com




SOURCES & CREDITS :

   NOAA